Terminal Aerodrome Forecast
Issued by NWS

Home | Current Version | Previous Version | Text Only | Print | Product List | Glossary On
Versions: 1 2 3 4 5 6 7 8 9 10 11 12
000
FTUS46 KSEW 031729
TAFOLM
TAF
KOLM 031729Z 0318/0418 23007KT P6SM BKN150
     FM040400 20007KT P6SM SCT020 BKN050
     FM040800 19004KT P6SM OVC015
     FM041300 19004KT P6SM OVC007
     FM041700 22004KT P6SM OVC015=

USA.gov is the U.S. government's official web portal to all federal, state and local government web resources and services.